createdAt,value
2022-10-17T00:00:04.977Z,67.24
2022-10-17T00:01:05.010Z,67.24
2022-10-17T00:02:04.928Z,67.24
2022-10-17T00:03:04.915Z,67.24
2022-10-17T00:04:04.938Z,67.24
2022-10-17T00:05:04.895Z,67.24
2022-10-17T00:06:04.884Z,67.24
2022-10-17T00:07:04.873Z,67.24
2022-10-17T00:08:04.862Z,67.24
2022-10-17T00:09:04.881Z,67.24
2022-10-17T00:10:04.840Z,67.24
2022-10-17T00:11:04.830Z,67.24
2022-10-17T00:12:04.822Z,67.24
2022-10-17T00:13:04.813Z,67.24
2022-10-17T00:14:04.828Z,67.24
2022-10-17T00:15:04.789Z,67.24
2022-10-17T00:16:04.806Z,67.24
2022-10-17T00:17:04.766Z,67.24
2022-10-17T00:18:04.765Z,67.24
2022-10-17T00:19:04.776Z,67.24
2022-10-17T00:20:04.734Z,67.24
2022-10-17T00:21:04.725Z,67.24
2022-10-17T00:22:04.713Z,67.24
2022-10-17T00:23:04.707Z,67.24
2022-10-17T00:24:04.695Z,67.24
2022-10-17T00:25:04.716Z,67.24
2022-10-17T00:26:04.673Z,67.35
2022-10-17T00:27:04.661Z,67.24
2022-10-17T00:28:04.650Z,67.24
2022-10-17T00:29:04.747Z,67.24
2022-10-17T00:30:04.663Z,67.24
2022-10-17T00:31:04.629Z,67.24
2022-10-17T00:32:04.635Z,67.24
2022-10-17T00:33:04.599Z,67.24
2022-10-17T00:34:04.588Z,67.24
2022-10-17T00:35:04.605Z,67.24
2022-10-17T00:36:04.569Z,67.24
2022-10-17T00:37:04.557Z,67.24
2022-10-17T00:38:04.548Z,67.24
2022-10-17T00:39:04.537Z,67.24
2022-10-17T00:40:04.562Z,67.24
2022-10-17T00:41:04.513Z,67.24
2022-10-17T00:42:04.502Z,67.24
2022-10-17T00:43:04.492Z,67.24
2022-10-17T00:44:04.484Z,67.24
2022-10-17T00:45:04.470Z,67.24
2022-10-17T00:46:04.492Z,67.24
2022-10-17T00:47:04.448Z,67.24
2022-10-17T00:48:04.473Z,67.24
2022-10-17T00:49:04.433Z,67.24
2022-10-17T00:50:04.423Z,67.24
2022-10-17T00:51:04.441Z,67.24
2022-10-17T00:52:04.396Z,67.24
2022-10-17T00:53:04.386Z,67.24
2022-10-17T00:54:04.378Z,67.24
2022-10-17T00:55:04.364Z,67.24
2022-10-17T00:56:04.386Z,67.24
2022-10-17T00:57:04.347Z,67.24
2022-10-17T00:58:04.336Z,67.24
2022-10-17T01:00:04.312Z,67.24
2022-10-17T01:01:04.393Z,67.24
2022-10-17T01:02:04.293Z,67.24
2022-10-17T01:03:04.278Z,67.24
2022-10-17T01:04:04.292Z,67.24
2022-10-17T01:05:04.258Z,67.24
2022-10-17T01:06:04.278Z,67.24
2022-10-17T01:07:04.240Z,67.24
2022-10-17T01:08:04.231Z,67.24
2022-10-17T01:09:04.216Z,67.24
2022-10-17T01:10:04.211Z,67.24
2022-10-17T01:11:04.225Z,67.24
2022-10-17T01:12:04.184Z,67.35
2022-10-17T01:13:04.173Z,67.35
2022-10-17T01:14:04.163Z,67.24
2022-10-17T01:15:04.153Z,67.35
2022-10-17T01:16:04.176Z,67.35
2022-10-17T01:17:04.132Z,67.24
2022-10-17T01:18:04.122Z,67.35
2022-10-17T01:19:04.111Z,67.35
2022-10-17T01:20:04.127Z,67.35
2022-10-17T01:21:04.127Z,67.24
2022-10-17T01:22:04.082Z,67.24
2022-10-17T01:23:04.068Z,67.24
2022-10-17T01:24:04.057Z,67.24
2022-10-17T01:25:04.046Z,67.35
2022-10-17T01:26:04.036Z,67.35
2022-10-17T01:27:04.056Z,67.35
2022-10-17T01:28:04.034Z,67.35
2022-10-17T01:29:04.005Z,67.35
2022-10-17T01:30:03.993Z,67.24
2022-10-17T01:31:03.982Z,67.35
2022-10-17T01:32:04.003Z,67.35
2022-10-17T01:33:03.961Z,67.35
2022-10-17T01:34:03.951Z,67.35
2022-10-17T01:35:03.942Z,67.35
2022-10-17T01:36:05.783Z,67.35
2022-10-17T01:37:03.953Z,67.35
2022-10-17T01:38:03.911Z,67.24
2022-10-17T01:39:03.898Z,67.24
2022-10-17T01:40:03.890Z,67.35
2022-10-17T01:41:03.879Z,67.24
2022-10-17T01:42:03.905Z,67.35
2022-10-17T01:43:03.856Z,67.35
2022-10-17T01:44:03.848Z,67.24
2022-10-17T01:45:03.834Z,67.35
2022-10-17T01:46:03.825Z,67.24
2022-10-17T01:47:03.814Z,67.24
2022-10-17T01:48:03.837Z,67.24
2022-10-17T01:49:03.794Z,67.24
2022-10-17T01:50:03.782Z,67.24
2022-10-17T01:51:03.773Z,67.35
2022-10-17T01:52:03.790Z,67.35
2022-10-17T01:53:03.780Z,67.35
2022-10-17T01:54:03.741Z,67.35
2022-10-17T01:55:03.728Z,67.24
2022-10-17T01:56:03.723Z,67.35
2022-10-17T01:57:03.708Z,67.35
2022-10-17T01:58:03.727Z,67.35
2022-10-17T01:59:03.691Z,67.35
2022-10-17T02:00:03.679Z,67.35
2022-10-17T02:01:03.729Z,67.35
2022-10-17T02:02:03.654Z,67.35
2022-10-17T02:03:03.676Z,67.35
2022-10-17T02:04:03.634Z,67.35
2022-10-17T02:05:03.631Z,67.35
2022-10-17T02:06:03.612Z,67.35
2022-10-17T02:07:03.601Z,67.35
2022-10-17T02:08:03.647Z,67.35
2022-10-17T02:09:03.582Z,67.35
2022-10-17T02:10:03.569Z,67.35
2022-10-17T02:11:03.569Z,67.35
2022-10-17T02:12:03.548Z,67.35
2022-10-17T02:13:03.570Z,67.35
2022-10-17T02:14:03.588Z,67.35
2022-10-17T02:15:03.515Z,67.35
2022-10-17T02:16:03.507Z,67.35
2022-10-17T02:17:03.496Z,67.35
2022-10-17T02:18:03.514Z,67.35
2022-10-17T02:19:03.476Z,67.35
2022-10-17T02:20:03.466Z,67.35
2022-10-17T02:21:03.454Z,67.35
2022-10-17T02:22:03.446Z,67.35
2022-10-17T02:23:03.466Z,67.35
2022-10-17T02:24:03.447Z,67.35
2022-10-17T02:25:03.415Z,67.35
2022-10-17T02:26:03.406Z,67.35
2022-10-17T02:27:03.389Z,67.24
2022-10-17T02:28:03.416Z,67.35
2022-10-17T02:29:03.516Z,67.35
2022-10-17T02:30:03.358Z,67.35
2022-10-17T02:31:03.349Z,67.35
2022-10-17T02:32:03.338Z,67.35
2022-10-17T02:33:03.327Z,67.35
2022-10-17T02:34:03.344Z,67.35
2022-10-17T02:35:03.305Z,67.35
2022-10-17T02:36:03.296Z,67.35
2022-10-17T02:37:03.287Z,67.35
2022-10-17T02:38:03.273Z,67.35
2022-10-17T02:39:03.296Z,67.35
2022-10-17T02:40:03.276Z,67.35
2022-10-17T02:41:03.246Z,67.35
2022-10-17T02:42:03.231Z,67.35
2022-10-17T02:43:03.223Z,67.35
2022-10-17T02:44:03.239Z,67.35
2022-10-17T02:45:03.200Z,67.35
2022-10-17T02:46:03.189Z,67.35
2022-10-17T02:47:03.178Z,67.35
2022-10-17T02:48:03.167Z,67.35
2022-10-17T02:49:03.191Z,67.35
2022-10-17T02:50:03.146Z,67.35
2022-10-17T02:51:03.138Z,67.35
2022-10-17T02:52:03.124Z,67.35
2022-10-17T02:53:03.116Z,67.35
2022-10-17T02:54:03.140Z,67.35
2022-10-17T02:55:03.095Z,67.35
2022-10-17T02:56:03.106Z,67.35
2022-10-17T02:57:03.073Z,67.35
2022-10-17T02:58:03.061Z,67.35
2022-10-17T02:59:03.051Z,67.35
2022-10-17T03:00:03.071Z,67.35
2022-10-17T03:01:03.114Z,67.35
2022-10-17T03:02:03.018Z,67.35
2022-10-17T03:03:03.012Z,67.35
2022-10-17T03:04:02.998Z,67.35
2022-10-17T03:05:03.018Z,67.35
2022-10-17T03:06:02.980Z,67.35
2022-10-17T03:07:02.966Z,67.35
2022-10-17T03:08:02.955Z,67.35
2022-10-17T03:09:02.945Z,67.35
2022-10-17T03:10:02.964Z,67.35
2022-10-17T03:11:02.925Z,67.35
2022-10-17T03:12:02.939Z,67.35
2022-10-17T03:13:02.902Z,67.35
2022-10-17T03:14:02.893Z,67.35
2022-10-17T03:15:02.919Z,67.35
2022-10-17T03:16:02.871Z,67.35
2022-10-17T03:17:02.871Z,67.35
2022-10-17T03:18:02.850Z,67.35
2022-10-17T03:19:02.839Z,67.35
2022-10-17T03:20:02.850Z,67.35
2022-10-17T03:21:02.817Z,67.35
2022-10-17T03:22:02.810Z,67.35
2022-10-17T03:23:02.798Z,67.35
2022-10-17T03:24:02.811Z,67.35
2022-10-17T03:25:02.775Z,67.35
2022-10-17T03:26:02.790Z,67.35
2022-10-17T03:27:02.753Z,67.35
2022-10-17T03:28:02.769Z,67.35
2022-10-17T03:29:02.801Z,67.35
2022-10-17T03:30:02.722Z,67.35
2022-10-17T03:31:02.734Z,67.35
2022-10-17T03:32:02.700Z,67.35
2022-10-17T03:33:02.696Z,67.35
2022-10-17T03:34:02.703Z,67.35
2022-10-17T03:35:02.719Z,67.35
2022-10-17T03:36:02.662Z,67.35
2022-10-17T03:37:02.649Z,67.35
2022-10-17T03:38:02.640Z,67.35
2022-10-17T03:39:02.647Z,67.35
2022-10-17T03:40:02.638Z,67.35
2022-10-17T03:41:02.605Z,67.35
2022-10-17T03:42:02.597Z,67.35
2022-10-17T03:43:02.584Z,67.35
2022-10-17T03:44:02.595Z,67.35
2022-10-17T03:45:02.592Z,67.35
2022-10-17T03:46:02.556Z,67.35
2022-10-17T03:47:02.544Z,67.35
2022-10-17T03:48:02.531Z,67.35
2022-10-17T03:49:02.532Z,67.35
2022-10-17T03:50:02.533Z,67.35
2022-10-17T03:51:02.502Z,67.35
2022-10-17T03:52:02.510Z,67.35
2022-10-17T03:53:02.481Z,67.44
2022-10-17T03:54:02.468Z,67.35
2022-10-17T03:55:02.460Z,67.35
2022-10-17T03:56:02.472Z,67.44
2022-10-17T03:57:02.440Z,67.44
2022-10-17T03:58:02.446Z,67.35
2022-10-17T03:59:02.417Z,67.44
2022-10-17T04:00:02.426Z,67.44
2022-10-17T04:01:02.463Z,67.35
2022-10-17T04:02:02.407Z,67.35
2022-10-17T04:03:02.372Z,67.35
2022-10-17T04:04:02.363Z,67.35
2022-10-17T04:05:02.387Z,67.35
2022-10-17T04:06:02.340Z,67.44
2022-10-17T04:07:02.330Z,67.44
2022-10-17T04:08:04.652Z,67.44
2022-10-17T04:09:02.310Z,67.44
2022-10-17T04:10:02.298Z,67.44
2022-10-17T04:11:02.313Z,67.44
2022-10-17T04:12:02.298Z,67.44
2022-10-17T04:13:02.266Z,67.44
2022-10-17T04:14:02.264Z,67.44
2022-10-17T04:15:02.249Z,67.44
2022-10-17T04:16:02.257Z,67.44
2022-10-17T04:17:02.263Z,67.44
2022-10-17T04:18:02.295Z,67.44
2022-10-17T04:19:02.204Z,67.44
2022-10-17T04:20:02.193Z,67.44
2022-10-17T04:21:02.181Z,67.44
2022-10-17T04:22:02.172Z,67.44
2022-10-17T04:23:02.188Z,67.44
2022-10-17T04:24:02.152Z,67.44
2022-10-17T04:25:02.142Z,67.44
2022-10-17T04:26:02.128Z,67.44
2022-10-17T04:27:02.121Z,67.44
2022-10-17T04:28:02.130Z,67.44
2022-10-17T04:29:02.120Z,67.44
2022-10-17T04:30:02.089Z,67.44
2022-10-17T04:31:02.077Z,67.44
2022-10-17T04:32:02.087Z,67.44
2022-10-17T04:33:02.055Z,67.44
2022-10-17T04:34:02.065Z,67.44
2022-10-17T04:35:02.054Z,67.44
2022-10-17T04:36:02.022Z,67.44
2022-10-17T04:37:02.015Z,67.44
2022-10-17T04:38:02.008Z,67.44
2022-10-17T04:39:02.039Z,67.44
2022-10-17T04:40:02.005Z,67.44
2022-10-17T04:41:01.971Z,67.44
2022-10-17T04:42:01.959Z,67.44
2022-10-17T04:43:01.949Z,67.44
2022-10-17T04:44:01.964Z,67.44
2022-10-17T04:45:01.928Z,67.44
2022-10-17T04:46:01.917Z,67.44
2022-10-17T04:47:01.908Z,67.44
2022-10-17T04:48:01.942Z,67.44
2022-10-17T04:49:01.890Z,67.44
2022-10-17T04:50:01.897Z,67.44
2022-10-17T04:51:01.864Z,67.44
2022-10-17T04:52:01.853Z,67.44
2022-10-17T04:53:01.843Z,67.44
2022-10-17T04:54:01.832Z,67.44
2022-10-17T04:55:01.847Z,67.44
2022-10-17T04:56:01.810Z,67.44
2022-10-17T04:57:01.818Z,67.44
2022-10-17T04:58:01.789Z,67.44
2022-10-17T04:59:01.803Z,67.44
2022-10-17T05:00:01.859Z,67.44
2022-10-17T05:01:01.820Z,67.44
2022-10-17T05:02:01.767Z,67.44
2022-10-17T05:03:01.738Z,67.44
2022-10-17T05:04:01.751Z,67.44
2022-10-17T05:05:01.716Z,67.44
2022-10-17T05:06:01.704Z,67.44
2022-10-17T05:07:01.720Z,67.44
2022-10-17T05:08:01.687Z,67.44
2022-10-17T05:09:01.697Z,67.44
2022-10-17T05:10:01.663Z,67.44
2022-10-17T05:11:01.671Z,67.44
2022-10-17T05:12:03.429Z,67.44
2022-10-17T05:13:01.669Z,67.44
2022-10-17T05:14:01.619Z,67.44
2022-10-17T05:15:01.610Z,67.44
2022-10-17T05:16:01.601Z,67.44
2022-10-17T05:17:01.591Z,67.44
2022-10-17T05:18:01.577Z,67.44
2022-10-17T05:19:01.593Z,67.44
2022-10-17T05:20:01.583Z,67.44
2022-10-17T05:21:01.548Z,67.44
2022-10-17T05:22:01.536Z,67.44
2022-10-17T05:23:01.529Z,67.44
2022-10-17T05:24:01.538Z,67.44
2022-10-17T05:25:01.529Z,67.44
2022-10-17T05:26:01.543Z,67.44
2022-10-17T05:27:01.485Z,67.44
2022-10-17T05:28:01.472Z,67.44
2022-10-17T05:29:01.555Z,67.44
2022-10-17T05:30:01.475Z,67.44
2022-10-17T05:31:01.444Z,67.44
2022-10-17T05:33:01.422Z,67.44
2022-10-17T05:34:01.409Z,67.44
2022-10-17T05:35:01.430Z,67.44
2022-10-17T05:36:01.413Z,67.44
2022-10-17T05:37:01.376Z,67.44
2022-10-17T05:38:01.369Z,67.44
2022-10-17T05:39:01.379Z,67.44
2022-10-17T05:40:01.344Z,67.44
2022-10-17T05:41:01.336Z,67.44
2022-10-17T05:42:01.335Z,67.44
2022-10-17T05:43:01.311Z,67.44
2022-10-17T05:44:04.632Z,67.44
2022-10-17T05:45:01.295Z,67.44
2022-10-17T05:46:01.281Z,67.44
2022-10-17T05:47:01.272Z,67.44
2022-10-17T05:48:01.264Z,67.44
2022-10-17T05:49:01.274Z,67.55
2022-10-17T05:50:01.238Z,67.44
2022-10-17T05:51:01.229Z,67.44
2022-10-17T05:52:01.243Z,67.44
2022-10-17T05:53:01.212Z,67.44
2022-10-17T05:54:01.217Z,67.44
2022-10-17T05:55:01.185Z,67.44
2022-10-17T05:56:01.175Z,67.44
2022-10-17T05:57:01.165Z,67.55
2022-10-17T05:58:01.153Z,67.55
2022-10-17T05:59:01.311Z,67.44
2022-10-17T06:00:01.139Z,67.44
2022-10-17T06:01:01.127Z,67.55
2022-10-17T06:02:01.218Z,67.44
2022-10-17T06:03:01.101Z,67.44
2022-10-17T06:04:01.113Z,67.55
2022-10-17T06:05:01.081Z,67.55
2022-10-17T06:06:01.099Z,67.44
2022-10-17T06:07:01.064Z,67.44
2022-10-17T06:08:02.101Z,67.44
2022-10-17T06:09:01.064Z,67.44
2022-10-17T06:10:01.029Z,67.44
2022-10-17T06:11:03.844Z,67.44
2022-10-17T06:12:02.010Z,67.44
2022-10-17T06:13:00.999Z,67.55
2022-10-17T06:14:01.010Z,67.44
2022-10-17T06:15:00.973Z,67.44
2022-10-17T06:16:00.965Z,67.44
2022-10-17T06:17:00.976Z,67.44
2022-10-17T06:18:00.944Z,67.55
2022-10-17T06:19:00.931Z,67.55
2022-10-17T06:20:00.923Z,67.44
2022-10-17T06:21:00.910Z,67.44
2022-10-17T06:22:00.937Z,67.55
2022-10-17T06:23:00.891Z,67.55
2022-10-17T06:24:00.901Z,67.55
2022-10-17T06:25:00.868Z,67.55
2022-10-17T06:26:00.864Z,67.55
2022-10-17T06:27:00.847Z,67.55
2022-10-17T06:28:00.880Z,67.55
2022-10-17T06:29:00.947Z,67.55
2022-10-17T06:30:00.816Z,67.55
2022-10-17T06:31:00.808Z,67.55
2022-10-17T06:32:00.795Z,67.55
2022-10-17T06:33:00.784Z,67.55
2022-10-17T06:34:00.809Z,67.55
2022-10-17T06:35:00.762Z,67.55
2022-10-17T06:36:00.754Z,67.55
2022-10-17T06:37:00.745Z,67.55
2022-10-17T06:38:00.736Z,67.55
2022-10-17T06:39:00.721Z,67.55
2022-10-17T06:40:00.768Z,67.55
2022-10-17T06:41:00.698Z,67.55
2022-10-17T06:42:00.701Z,67.55
2022-10-17T06:43:00.678Z,67.55
2022-10-17T06:44:00.693Z,67.55
2022-10-17T06:45:00.663Z,67.55
2022-10-17T06:46:00.647Z,67.55
2022-10-17T06:47:00.633Z,67.55
2022-10-17T06:48:00.627Z,67.55
2022-10-17T06:49:00.637Z,67.55
2022-10-17T06:50:00.604Z,67.55
2022-10-17T06:51:00.616Z,67.65
2022-10-17T06:52:00.608Z,67.65
2022-10-17T06:53:00.607Z,67.55
2022-10-17T06:54:00.582Z,67.55
2022-10-17T06:55:00.636Z,67.65
2022-10-17T06:56:00.564Z,67.65
2022-10-17T06:57:00.530Z,67.55
2022-10-17T06:58:00.544Z,67.55
2022-10-17T06:59:00.510Z,67.55
2022-10-17T07:00:00.500Z,67.55
2022-10-17T07:01:01.123Z,67.55
2022-10-17T07:02:00.478Z,67.55
2022-10-17T07:03:00.488Z,67.55
2022-10-17T07:04:00.455Z,67.55
2022-10-17T07:05:00.443Z,67.55
2022-10-17T07:06:00.461Z,67.55
2022-10-17T07:07:00.426Z,67.55
2022-10-17T07:08:00.445Z,67.55
2022-10-17T07:09:00.400Z,67.44
2022-10-17T07:10:00.394Z,67.44
2022-10-17T07:11:00.402Z,67.44
2022-10-17T07:12:00.396Z,67.44
2022-10-17T07:13:00.359Z,67.35
2022-10-17T07:14:00.349Z,67.44
2022-10-17T07:15:00.336Z,67.44
2022-10-17T07:16:00.362Z,67.55
2022-10-17T07:17:00.316Z,67.55
2022-10-17T07:18:00.329Z,67.65
2022-10-17T07:19:00.294Z,67.85
2022-10-17T07:20:00.300Z,67.94
2022-10-17T07:21:00.281Z,67.91
2022-10-17T07:22:00.270Z,68.02
2022-10-17T07:23:00.275Z,68.02
2022-10-17T07:24:00.269Z,68.12
2022-10-17T07:25:00.231Z,68.12
2022-10-17T07:26:00.230Z,68.12
2022-10-17T07:27:00.243Z,68.12
2022-10-17T07:28:00.231Z,68.12
2022-10-17T07:29:00.282Z,68.21
2022-10-17T07:30:00.180Z,68.21
2022-10-17T07:31:00.170Z,68.21
2022-10-17T07:32:00.164Z,68.21
2022-10-17T07:33:00.172Z,68.21
2022-10-17T07:34:00.151Z,68.12
2022-10-17T07:35:00.183Z,68.02
2022-10-17T07:36:00.116Z,68.02
2022-10-17T07:37:00.108Z,67.91
2022-10-17T07:38:00.096Z,67.82
2022-10-17T07:39:00.111Z,67.82
2022-10-17T07:40:00.097Z,67.82
2022-10-17T07:41:00.084Z,67.82
2022-10-17T07:42:00.056Z,67.82
2022-10-17T07:43:00.049Z,67.82
2022-10-17T07:44:00.057Z,67.91
2022-10-17T07:45:00.044Z,68.12
2022-10-17T07:46:00.035Z,68.02
2022-10-17T07:47:00.034Z,68.12
2022-10-17T07:47:59.988Z,68.12
2022-10-17T07:48:59.977Z,68.02
2022-10-17T07:49:59.969Z,68.12
2022-10-17T07:50:59.957Z,68.32
2022-10-17T07:51:59.950Z,68.41
2022-10-17T07:52:59.961Z,68.41
2022-10-17T07:53:59.937Z,68.32
2022-10-17T07:54:59.914Z,68.21
2022-10-17T07:55:59.904Z,68.32
2022-10-17T07:56:59.892Z,68.41
2022-10-17T07:57:59.906Z,68.41
2022-10-17T07:59:01.727Z,68.41
2022-10-17T07:59:59.892Z,68.32
2022-10-17T08:00:59.941Z,68.32
2022-10-17T08:01:59.840Z,68.32
2022-10-17T08:02:59.854Z,68.21
2022-10-17T08:03:59.823Z,68.41
2022-10-17T08:04:59.808Z,68.52
2022-10-17T08:05:59.839Z,68.62
2022-10-17T08:07:11.308Z,68.62
2022-10-17T08:08:00.780Z,68.52
2022-10-17T08:08:59.765Z,68.41
2022-10-17T08:09:59.816Z,68.41
2022-10-17T08:10:59.744Z,68.52
2022-10-17T08:11:59.762Z,68.52
2022-10-17T08:12:59.723Z,68.72
2022-10-17T08:13:59.714Z,68.62
2022-10-17T08:14:59.711Z,68.62
2022-10-17T08:15:59.716Z,68.82
2022-10-17T08:16:59.723Z,68.72
2022-10-17T08:17:59.711Z,68.52
2022-10-17T08:18:59.717Z,68.41
2022-10-17T08:19:59.652Z,68.62
2022-10-17T08:21:00.308Z,68.72
2022-10-17T08:21:59.630Z,68.82
2022-10-17T08:22:59.628Z,68.82
2022-10-17T08:23:59.635Z,68.79
2022-10-17T08:24:59.598Z,68.88
2022-10-17T08:25:59.587Z,68.82
2022-10-17T08:26:59.575Z,68.72
2022-10-17T08:27:59.629Z,68.62
2022-10-17T08:28:59.667Z,68.52
2022-10-17T08:29:59.544Z,68.41
2022-10-17T08:30:59.568Z,68.32
2022-10-17T08:32:01.215Z,68.32
2022-10-17T08:32:59.511Z,68.21
2022-10-17T08:33:59.504Z,68.12
2022-10-17T08:34:59.491Z,68.41
2022-10-17T08:35:59.481Z,68.52
2022-10-17T08:36:59.522Z,68.82
2022-10-17T08:37:59.470Z,68.92
2022-10-17T08:38:59.473Z,68.92
2022-10-17T08:39:59.490Z,68.82
2022-10-17T08:40:59.428Z,68.82
2022-10-17T08:41:59.419Z,68.82
2022-10-17T08:42:59.406Z,68.82
2022-10-17T08:43:59.416Z,68.82
2022-10-17T08:44:59.386Z,68.72
2022-10-17T08:45:59.376Z,68.72
2022-10-17T08:46:59.387Z,68.72
2022-10-17T08:47:59.413Z,68.72
2022-10-17T08:48:59.342Z,68.62
2022-10-17T08:49:59.333Z,68.72
2022-10-17T08:50:59.321Z,68.72
2022-10-17T08:51:59.334Z,68.72
2022-10-17T08:52:59.301Z,68.72
2022-10-17T08:53:59.294Z,68.72
2022-10-17T08:54:59.280Z,68.62
2022-10-17T08:55:59.271Z,68.72
2022-10-17T08:56:59.290Z,68.72
2022-10-17T08:57:59.250Z,68.72
2022-10-17T08:58:59.274Z,68.72
2022-10-17T08:59:59.229Z,68.72
2022-10-17T09:00:59.216Z,68.72
2022-10-17T09:01:59.208Z,68.72
2022-10-17T09:02:59.255Z,68.72
2022-10-17T09:03:59.223Z,68.72
2022-10-17T09:04:59.196Z,68.82
2022-10-17T09:05:59.167Z,68.82
2022-10-17T09:06:59.152Z,68.82
2022-10-17T09:07:59.145Z,68.82
2022-10-17T09:08:59.131Z,68.82
2022-10-17T09:09:59.150Z,68.82
2022-10-17T09:10:59.111Z,68.82
2022-10-17T09:11:59.125Z,68.82
2022-10-17T09:13:00.884Z,68.82
2022-10-17T09:13:59.082Z,68.72
2022-10-17T09:14:59.070Z,68.72
2022-10-17T09:15:59.060Z,68.82
2022-10-17T09:16:59.074Z,68.82
2022-10-17T09:17:59.060Z,68.72
2022-10-17T09:18:59.032Z,68.72
2022-10-17T09:19:59.041Z,68.72
2022-10-17T09:20:59.004Z,68.72
2022-10-17T09:21:59.002Z,68.62
2022-10-17T09:22:59.029Z,68.52
2022-10-17T09:24:09.184Z,68.52
2022-10-17T09:24:59.961Z,68.52
2022-10-17T09:25:58.957Z,68.52
2022-10-17T09:26:58.941Z,68.52
2022-10-17T09:27:58.931Z,68.52
2022-10-17T09:28:59.054Z,68.52
2022-10-17T09:29:58.910Z,68.62
2022-10-17T09:30:58.899Z,68.72
2022-10-17T09:31:58.928Z,68.72
2022-10-17T09:32:58.878Z,68.72
2022-10-17T09:33:58.890Z,68.72
2022-10-17T09:34:58.859Z,68.62
2022-10-17T09:35:58.894Z,68.62
2022-10-17T09:36:58.835Z,68.72
2022-10-17T09:37:58.833Z,68.72
2022-10-17T09:38:58.835Z,68.72
2022-10-17T09:39:58.804Z,68.92
2022-10-17T09:40:58.805Z,68.92
2022-10-17T09:41:58.813Z,68.92
2022-10-17T09:42:58.772Z,68.88
2022-10-17T09:43:58.764Z,68.99
2022-10-17T09:44:58.754Z,68.99
2022-10-17T09:45:58.741Z,68.99
2022-10-17T09:46:58.754Z,68.99
2022-10-17T09:48:01.003Z,69.09
2022-10-17T09:48:58.764Z,69.09
2022-10-17T09:49:58.723Z,69.09
2022-10-17T09:51:14.712Z,69.09
2022-10-17T09:51:59.701Z,69.19
2022-10-17T09:52:58.668Z,69.19
2022-10-17T09:53:58.656Z,69.29
2022-10-17T09:54:58.675Z,69.29
2022-10-17T09:55:58.657Z,69.29
2022-10-17T09:56:58.629Z,69.29
2022-10-17T09:57:58.638Z,69.49
2022-10-17T09:58:58.606Z,69.59
2022-10-17T09:59:58.742Z,69.49
2022-10-17T10:00:58.652Z,69.59
2022-10-17T10:01:58.574Z,69.49
2022-10-17T10:02:58.589Z,69.59
2022-10-17T10:03:58.552Z,69.59
2022-10-17T10:05:06.923Z,69.59
2022-10-17T10:05:59.571Z,69.59
2022-10-17T10:06:58.523Z,69.59
2022-10-17T10:07:58.531Z,69.49
2022-10-17T10:08:58.500Z,69.49
2022-10-17T10:09:58.488Z,69.49
2022-10-17T10:10:58.481Z,69.49
2022-10-17T10:11:58.490Z,69.49
2022-10-17T10:12:58.459Z,69.59
2022-10-17T10:13:58.444Z,69.69
2022-10-17T10:14:58.438Z,69.69
2022-10-17T10:15:58.449Z,69.69
2022-10-17T10:16:58.417Z,69.69
2022-10-17T10:17:58.403Z,69.69
2022-10-17T10:18:58.395Z,69.69
2022-10-17T10:19:58.392Z,69.79
2022-10-17T10:20:58.399Z,69.79
2022-10-17T10:21:58.360Z,69.79
2022-10-17T10:22:58.846Z,69.79
2022-10-17T10:23:58.389Z,69.79
2022-10-17T10:24:58.330Z,69.59
2022-10-17T10:25:58.321Z,69.49
2022-10-17T10:26:58.336Z,69.39
2022-10-17T10:28:00.677Z,69.39
2022-10-17T10:28:58.367Z,69.49
2022-10-17T10:29:58.277Z,69.69
2022-10-17T10:30:58.269Z,69.59
2022-10-17T10:31:58.281Z,69.59
2022-10-17T10:32:58.245Z,69.69
2022-10-17T10:33:58.241Z,69.89
2022-10-17T10:34:58.223Z,69.99
2022-10-17T10:35:58.219Z,69.89
2022-10-17T10:36:58.228Z,69.79
2022-10-17T10:37:58.195Z,69.89
2022-10-17T10:39:01.252Z,69.89
2022-10-17T10:39:59.197Z,69.79
2022-10-17T10:40:58.184Z,69.79
2022-10-17T10:41:58.150Z,69.79
2022-10-17T10:43:04.044Z,69.89
2022-10-17T10:43:59.129Z,69.89
2022-10-17T10:44:58.118Z,69.89
2022-10-17T10:45:58.138Z,69.89
2022-10-17T10:46:58.097Z,69.79
2022-10-17T10:47:58.086Z,69.79
2022-10-17T10:48:58.099Z,69.69
2022-10-17T10:49:58.066Z,69.59
2022-10-17T10:50:58.078Z,69.49
2022-10-17T10:51:58.045Z,69.49
2022-10-17T10:52:58.034Z,69.49
2022-10-17T10:53:58.025Z,69.49
2022-10-17T10:54:58.038Z,69.49
2022-10-17T10:55:58.029Z,69.49
2022-10-17T10:56:57.993Z,69.39
2022-10-17T10:57:57.982Z,69.39
2022-10-17T10:58:57.970Z,69.39
2022-10-17T10:59:57.984Z,69.39
2022-10-17T11:00:58.041Z,69.69
2022-10-17T11:01:57.943Z,69.79
2022-10-17T11:02:57.928Z,69.79
2022-10-17T11:03:57.927Z,69.89
2022-10-17T11:04:57.931Z,69.89
2022-10-17T11:05:57.899Z,69.89
2022-10-17T11:06:57.888Z,69.89
2022-10-17T11:07:57.876Z,69.89
2022-10-17T11:08:57.865Z,69.89
2022-10-17T11:09:57.883Z,69.99
2022-10-17T11:10:57.866Z,69.89
2022-10-17T11:11:57.899Z,70.09
2022-10-17T11:12:57.824Z,70.09
2022-10-17T11:13:57.813Z,69.89
2022-10-17T11:14:57.809Z,69.89
2022-10-17T11:15:57.795Z,69.79
2022-10-17T11:16:57.781Z,69.89
2022-10-17T11:17:57.830Z,69.89
2022-10-17T11:18:57.807Z,69.79
2022-10-17T11:19:57.957Z,69.79
2022-10-17T11:20:57.749Z,69.79
2022-10-17T11:21:57.727Z,69.79
2022-10-17T11:22:57.716Z,69.69
2022-10-17T11:23:57.714Z,69.69
2022-10-17T11:24:57.762Z,69.69
2022-10-17T11:25:57.713Z,69.69
2022-10-17T11:26:57.688Z,69.59
2022-10-17T11:28:00.974Z,69.59
2022-10-17T11:28:58.788Z,69.59
2022-10-17T11:29:57.647Z,69.49
2022-10-17T11:30:57.655Z,69.49
2022-10-17T11:31:57.623Z,69.49
2022-10-17T11:32:57.631Z,69.49
2022-10-17T11:33:57.602Z,69.49
2022-10-17T11:34:57.593Z,69.49
2022-10-17T11:35:58.894Z,69.49
2022-10-17T11:36:57.588Z,69.49
2022-10-17T11:37:57.635Z,69.39
2022-10-17T11:38:57.550Z,69.49
2022-10-17T11:39:57.538Z,69.49
2022-10-17T11:40:57.527Z,69.49
2022-10-17T11:41:59.821Z,69.49
2022-10-17T11:42:57.507Z,69.49
2022-10-17T11:43:57.528Z,69.49
2022-10-17T11:44:57.505Z,69.49
2022-10-17T11:45:57.478Z,69.49
2022-10-17T11:46:57.463Z,69.49
2022-10-17T11:47:57.455Z,69.49
2022-10-17T11:48:57.442Z,69.59
2022-10-17T11:49:57.494Z,69.59
2022-10-17T11:52:00.803Z,69.59
2022-10-17T11:52:57.548Z,69.59
2022-10-17T11:53:57.390Z,69.59
2022-10-17T11:54:57.379Z,69.49
2022-10-17T11:55:57.371Z,69.49
2022-10-17T11:56:57.381Z,69.49
2022-10-17T11:57:57.401Z,69.49
2022-10-17T11:58:57.360Z,69.49
2022-10-17T11:59:57.353Z,69.59
2022-10-17T12:00:57.316Z,69.59
2022-10-17T12:01:57.308Z,69.69
2022-10-17T12:02:57.295Z,69.69
2022-10-17T12:03:57.412Z,69.69
2022-10-17T12:04:57.275Z,69.79
2022-10-17T12:05:57.265Z,69.79
2022-10-17T12:06:57.253Z,69.69
2022-10-17T12:07:57.245Z,69.79
2022-10-17T12:08:57.256Z,69.79
2022-10-17T12:09:57.243Z,69.79
2022-10-17T12:10:57.210Z,69.69
2022-10-17T12:11:57.201Z,69.69
2022-10-17T12:12:57.187Z,69.69
2022-10-17T12:13:57.180Z,69.79
2022-10-17T12:14:57.191Z,69.79
2022-10-17T12:15:57.185Z,69.89
2022-10-17T12:16:57.147Z,69.89
2022-10-17T12:17:57.138Z,69.89
2022-10-17T12:18:57.167Z,69.89
2022-10-17T12:19:57.118Z,69.79
2022-10-17T12:20:57.105Z,69.89
2022-10-17T12:21:57.098Z,69.89
2022-10-17T12:22:57.084Z,69.89
2022-10-17T12:23:57.078Z,69.89
2022-10-17T12:24:57.088Z,69.79
2022-10-17T12:25:59.763Z,69.79
2022-10-17T12:26:58.040Z,69.79
2022-10-17T12:27:57.032Z,69.79
2022-10-17T12:28:57.076Z,69.79
2022-10-17T12:29:57.052Z,69.89
2022-10-17T12:30:57.001Z,69.89
2022-10-17T12:31:57.028Z,69.89
2022-10-17T12:33:05.545Z,69.89
2022-10-17T12:33:57.971Z,69.89
2022-10-17T12:34:56.957Z,69.89
2022-10-17T12:35:56.973Z,69.89
2022-10-17T12:36:56.938Z,69.89
2022-10-17T12:37:58.768Z,69.89
2022-10-17T12:38:56.915Z,69.89
2022-10-17T12:39:56.907Z,69.89
2022-10-17T12:40:56.924Z,69.89
2022-10-17T12:41:56.884Z,69.89
2022-10-17T12:42:56.882Z,69.89
2022-10-17T12:43:56.865Z,69.89
2022-10-17T12:44:56.856Z,69.89
2022-10-17T12:45:56.873Z,69.89
2022-10-17T12:46:56.832Z,69.89
2022-10-17T12:47:56.868Z,69.79
2022-10-17T12:48:56.812Z,69.89
2022-10-17T12:49:56.879Z,69.69
2022-10-17T12:51:12.143Z,69.69
2022-10-17T12:51:57.818Z,69.69
2022-10-17T12:52:56.774Z,69.69
2022-10-17T12:53:56.760Z,69.59
2022-10-17T12:55:07.515Z,69.59